Time;durP1;ratioP1;P1;durP2;ratioP2;P2;SDS_P1;SDS_P2;PMS_P1;PMS_P2;Temp;Humidity;BMP_temperature;BMP_pressure;BME280_temperature;BME280_humidity;BME280_pressure;Samples;Min_cycle;Max_cycle;Signal;HPM_P1;HPM_P2
2024/03/03 00:02:05;;;;;;;;;;;17.70;65.10;;;;;;5044281;28;1272;-70
2024/03/03 00:04:30;;;;;;;;;;;17.70;65.10;;;;;;5038973;28;1486;-70
2024/03/03 00:06:56;;;;;;;;;;;17.70;65.10;;;;;;5043439;28;1336;-73
2024/03/03 00:09:22;;;;;;;;;;;17.70;65.20;;;;;;5044933;28;1493;-71
2024/03/03 00:11:47;;;;;;;;;;;17.70;65.20;;;;;;5038789;28;1420;-70
2024/03/03 00:14:13;;;;;;;;;;;17.70;65.20;;;;;;5043120;28;1977;-70
2024/03/03 00:16:44;;;;;;;;;;;17.70;65.20;;;;;;5040465;28;1403;-70
2024/03/03 00:19:10;;;;;;;;;;;17.60;65.10;;;;;;5043580;28;1525;-71
2024/03/03 00:21:35;;;;;;;;;;;17.70;65.20;;;;;;5042092;28;1315;-70
2024/03/03 00:24:02;;;;;;;;;;;17.70;65.20;;;;;;5040842;28;1399;-70
2024/03/03 00:26:27;;;;;;;;;;;17.70;65.20;;;;;;5037858;28;1020;-70
2024/03/03 00:28:53;;;;;;;;;;;17.70;65.20;;;;;;5040114;28;1326;-70
2024/03/03 00:31:18;;;;;;;;;;;17.70;65.20;;;;;;5041637;28;1283;-70
2024/03/03 00:33:44;;;;;;;;;;;17.60;65.20;;;;;;5037063;28;1910;-70
2024/03/03 00:36:10;;;;;;;;;;;17.60;65.20;;;;;;5041603;28;1320;-71
2024/03/03 00:38:37;;;;;;;;;;;17.60;65.20;;;;;;5038912;28;981;-71
2024/03/03 00:41:04;;;;;;;;;;;17.60;65.20;;;;;;5041749;28;1484;-70
2024/03/03 00:43:33;;;;;;;;;;;17.60;65.20;;;;;;5038953;28;1477;-70
2024/03/03 00:45:58;;;;;;;;;;;17.60;65.20;;;;;;5039797;28;1271;-70
2024/03/03 00:48:24;;;;;;;;;;;17.60;65.20;;;;;;5040931;28;1621;-69
2024/03/03 00:50:49;;;;;;;;;;;17.60;65.20;;;;;;5037577;28;1630;-70
2024/03/03 00:53:15;;;;;;;;;;;17.60;65.20;;;;;;5038714;28;1898;-70
2024/03/03 00:55:46;;;;;;;;;;;17.60;65.30;;;;;;5040904;28;1546;-70
2024/03/03 00:58:14;;;;;;;;;;;17.60;65.30;;;;;;5037370;28;1563;-69
2024/03/03 01:00:40;;;;;;;;;;;17.60;65.30;;;;;;5041011;28;1345;-70
2024/03/03 01:03:06;;;;;;;;;;;17.60;65.30;;;;;;5039059;28;1466;-70
2024/03/03 01:05:31;;;;;;;;;;;17.60;65.30;;;;;;5046455;28;1457;-70
2024/03/03 01:07:57;;;;;;;;;;;17.60;65.40;;;;;;5040806;28;1533;-72
2024/03/03 01:10:22;;;;;;;;;;;17.60;65.40;;;;;;5037487;28;1650;-70
2024/03/03 01:12:48;;;;;;;;;;;17.60;65.40;;;;;;5041258;28;1971;-70
2024/03/03 01:15:13;;;;;;;;;;;17.60;65.40;;;;;;5038424;28;1370;-69
2024/03/03 01:17:39;;;;;;;;;;;17.60;65.40;;;;;;5041083;28;1508;-69
2024/03/03 01:20:05;;;;;;;;;;;17.60;65.40;;;;;;5038799;28;1669;-70
2024/03/03 01:22:31;;;;;;;;;;;17.60;65.40;;;;;;5040241;28;1276;-70
2024/03/03 01:24:57;;;;;;;;;;;17.60;65.40;;;;;;5037404;28;1277;-70
2024/03/03 01:27:22;;;;;;;;;;;17.60;65.40;;;;;;5054228;28;1307;-69
2024/03/03 01:29:48;;;;;;;;;;;17.60;66.20;;;;;;5037592;28;1055;-70
2024/03/03 01:32:13;;;;;;;;;;;17.60;65.40;;;;;;5037086;28;1969;-70
2024/03/03 01:34:40;;;;;;;;;;;17.60;65.40;;;;;;5039836;28;1623;-69
2024/03/03 01:37:05;;;;;;;;;;;17.60;65.50;;;;;;5042716;28;1365;-70
2024/03/03 01:39:31;;;;;;;;;;;17.60;65.40;;;;;;5040873;28;1198;-71
2024/03/03 01:41:56;;;;;;;;;;;17.60;65.50;;;;;;5038014;28;1277;-70
2024/03/03 01:44:22;;;;;;;;;;;17.60;65.50;;;;;;5038767;28;1936;-71
2024/03/03 01:46:47;;;;;;;;;;;17.60;65.50;;;;;;5036651;28;1423;-71
2024/03/03 01:49:13;;;;;;;;;;;17.60;65.50;;;;;;5039034;28;1268;-71
2024/03/03 01:51:39;;;;;;;;;;;17.60;65.50;;;;;;5036846;28;1458;-71
2024/03/03 01:54:04;;;;;;;;;;;17.60;65.50;;;;;;5037639;28;1983;-72
2024/03/03 01:56:30;;;;;;;;;;;17.60;65.50;;;;;;5037094;28;1496;-71
2024/03/03 01:58:55;;;;;;;;;;;17.60;65.50;;;;;;5037624;28;1676;-71
2024/03/03 02:01:21;;;;;;;;;;;17.60;65.50;;;;;;5040793;28;1786;-71
2024/03/03 02:03:47;;;;;;;;;;;17.60;65.50;;;;;;5047732;28;1532;-71
2024/03/03 02:06:14;;;;;;;;;;;17.60;65.50;;;;;;5039914;28;1415;-72
2024/03/03 02:08:40;;;;;;;;;;;17.60;65.60;;;;;;5038785;28;1451;-71
2024/03/03 02:11:06;;;;;;;;;;;17.60;65.50;;;;;;5038468;28;1734;-71
2024/03/03 02:13:31;;;;;;;;;;;17.60;66.30;;;;;;5036720;28;1914;-71
2024/03/03 02:15:56;;;;;;;;;;;17.60;65.60;;;;;;5037855;28;1149;-71
2024/03/03 02:18:22;;;;;;;;;;;17.60;65.50;;;;;;5037771;28;1711;-72
2024/03/03 02:20:47;;;;;;;;;;;17.60;65.60;;;;;;5038170;28;1375;-72
2024/03/03 02:23:13;;;;;;;;;;;17.60;65.60;;;;;;5045652;28;1914;-71
2024/03/03 02:25:39;;;;;;;;;;;17.60;65.60;;;;;;5035996;28;1279;-71
2024/03/03 02:28:04;;;;;;;;;;;17.50;65.50;;;;;;5037583;28;1124;-72
2024/03/03 02:30:30;;;;;;;;;;;17.50;65.50;;;;;;5045318;28;930;-71
2024/03/03 02:32:55;;;;;;;;;;;17.60;65.60;;;;;;5036115;28;1902;-71
2024/03/03 02:35:21;;;;;;;;;;;17.60;65.60;;;;;;5040199;28;1334;-71
2024/03/03 02:37:46;;;;;;;;;;;17.50;65.60;;;;;;5038891;28;1253;-71
2024/03/03 02:40:12;;;;;;;;;;;17.50;65.60;;;;;;5038798;28;1449;-71
2024/03/03 02:42:38;;;;;;;;;;;17.60;65.60;;;;;;5038058;28;1467;-71
2024/03/03 02:45:04;;;;;;;;;;;17.50;65.60;;;;;;5038506;28;1569;-71
2024/03/03 02:47:30;;;;;;;;;;;17.50;65.60;;;;;;5038978;28;1228;-70
2024/03/03 02:49:55;;;;;;;;;;;17.50;65.60;;;;;;5049006;28;1444;-70
2024/03/03 02:52:21;;;;;;;;;;;17.50;65.60;;;;;;5040665;28;1973;-70
2024/03/03 02:54:46;;;;;;;;;;;17.50;65.60;;;;;;5039851;28;1037;-70
2024/03/03 02:57:12;;;;;;;;;;;17.50;65.60;;;;;;5041272;28;1246;-72
2024/03/03 02:59:37;;;;;;;;;;;17.50;65.60;;;;;;5040876;28;877;-71
2024/03/03 03:02:02;;;;;;;;;;;17.50;65.60;;;;;;5038276;28;1476;-71
2024/03/03 03:04:28;;;;;;;;;;;17.50;65.60;;;;;;5039393;28;959;-71
2024/03/03 03:06:54;;;;;;;;;;;17.50;65.60;;;;;;5041203;28;1595;-73
2024/03/03 03:09:20;;;;;;;;;;;17.50;65.60;;;;;;5043378;28;1027;-72
2024/03/03 03:11:46;;;;;;;;;;;17.50;65.60;;;;;;5042130;28;1410;-72
2024/03/03 03:14:11;;;;;;;;;;;17.50;65.60;;;;;;5042315;28;1917;-72
2024/03/03 03:16:40;;;;;;;;;;;17.50;65.60;;;;;;5042046;28;1432;-71
2024/03/03 03:19:06;;;;;;;;;;;17.50;65.70;;;;;;5041992;28;1591;-72
2024/03/03 03:21:32;;;;;;;;;;;17.50;65.70;;;;;;5040820;28;1596;-72
2024/03/03 03:23:58;;;;;;;;;;;17.50;65.70;;;;;;5040902;28;1619;-72
2024/03/03 03:26:23;;;;;;;;;;;17.50;65.70;;;;;;5040341;28;1301;-72
2024/03/03 03:28:49;;;;;;;;;;;17.50;65.70;;;;;;5040603;28;1448;-72
2024/03/03 03:31:15;;;;;;;;;;;17.50;65.70;;;;;;5039627;28;1631;-72
2024/03/03 03:33:41;;;;;;;;;;;17.50;65.70;;;;;;5039545;28;1894;-72
2024/03/03 03:36:10;;;;;;;;;;;17.50;65.70;;;;;;5049198;28;1336;-73
2024/03/03 03:38:35;;;;;;;;;;;17.50;65.70;;;;;;5039974;28;1418;-70
2024/03/03 03:41:01;;;;;;;;;;;17.50;66.40;;;;;;5041626;28;1372;-72
2024/03/03 03:43:27;;;;;;;;;;;17.50;65.70;;;;;;5044229;28;1375;-73
2024/03/03 03:45:52;;;;;;;;;;;17.50;65.70;;;;;;5042806;28;1704;-71
2024/03/03 03:48:18;;;;;;;;;;;17.50;65.70;;;;;;5043121;28;1645;-72
2024/03/03 03:50:43;;;;;;;;;;;17.50;65.70;;;;;;5045537;28;1264;-70
2024/03/03 03:53:09;;;;;;;;;;;17.50;65.70;;;;;;5044993;28;1898;-72
2024/03/03 03:55:34;;;;;;;;;;;17.50;65.70;;;;;;5042471;28;1355;-72
2024/03/03 03:57:59;;;;;;;;;;;17.50;65.80;;;;;;5043216;28;1529;-70
2024/03/03 04:00:25;;;;;;;;;;;17.50;65.80;;;;;;5042497;28;1454;-70
2024/03/03 04:02:50;;;;;;;;;;;17.50;65.80;;;;;;5042714;28;1506;-70
2024/03/03 04:05:16;;;;;;;;;;;17.50;65.80;;;;;;5041506;28;1495;-71
2024/03/03 04:07:41;;;;;;;;;;;17.50;65.80;;;;;;5042030;28;1338;-71
2024/03/03 04:10:07;;;;;;;;;;;17.40;65.70;;;;;;5039935;28;1397;-72
2024/03/03 04:12:33;;;;;;;;;;;17.50;65.80;;;;;;5038099;28;1906;-70
2024/03/03 04:14:59;;;;;;;;;;;17.50;65.80;;;;;;5039476;28;1565;-70
2024/03/03 04:17:24;;;;;;;;;;;17.50;65.80;;;;;;5038724;28;1476;-71
2024/03/03 04:19:50;;;;;;;;;;;17.50;65.80;;;;;;5042066;28;1508;-71
2024/03/03 04:22:15;;;;;;;;;;;17.50;65.80;;;;;;5036598;28;1590;-71
2024/03/03 04:24:41;;;;;;;;;;;17.50;65.80;;;;;;5041213;28;1562;-71
2024/03/03 04:27:06;;;;;;;;;;;17.50;65.80;;;;;;5040648;28;1714;-71
2024/03/03 04:29:32;;;;;;;;;;;17.50;65.80;;;;;;5039819;28;1246;-71
2024/03/03 04:31:58;;;;;;;;;;;17.50;65.80;;;;;;5040313;28;1299;-71
2024/03/03 04:34:26;;;;;;;;;;;17.50;65.90;;;;;;5071413;28;1906;-71
2024/03/03 04:36:52;;;;;;;;;;;17.50;65.80;;;;;;5039154;28;1451;-71
2024/03/03 04:39:17;;;;;;;;;;;17.50;65.80;;;;;;5037841;28;1513;-71
2024/03/03 04:41:43;;;;;;;;;;;17.50;65.80;;;;;;5046674;28;1550;-71
2024/03/03 04:44:08;;;;;;;;;;;17.50;65.90;;;;;;5040681;28;1557;-71
2024/03/03 04:46:34;;;;;;;;;;;17.50;65.90;;;;;;5041275;28;1467;-71
2024/03/03 04:48:59;;;;;;;;;;;17.40;65.80;;;;;;5039820;28;1458;-72
2024/03/03 04:51:25;;;;;;;;;;;17.50;65.80;;;;;;5038633;28;1312;-72
2024/03/03 04:53:50;;;;;;;;;;;17.50;65.90;;;;;;5036695;28;1969;-72
2024/03/03 04:56:17;;;;;;;;;;;17.50;65.90;;;;;;5038487;28;1295;-72
2024/03/03 04:58:43;;;;;;;;;;;17.50;65.90;;;;;;5035852;28;1516;-72
2024/03/03 05:01:08;;;;;;;;;;;17.50;65.90;;;;;;5037519;28;1351;-73
2024/03/03 05:03:34;;;;;;;;;;;17.50;65.90;;;;;;5038256;28;1427;-71
2024/03/03 05:05:59;;;;;;;;;;;17.50;65.90;;;;;;5034036;28;1310;-70
2024/03/03 05:08:25;;;;;;;;;;;17.50;65.90;;;;;;5037192;28;1459;-70
2024/03/03 05:10:51;;;;;;;;;;;17.50;65.90;;;;;;5071713;28;1578;-71
2024/03/03 05:13:16;;;;;;;;;;;17.50;65.80;;;;;;5038655;28;1914;-70
2024/03/03 05:15:41;;;;;;;;;;;17.50;65.80;;;;;;5038398;28;948;-69
2024/03/03 05:18:07;;;;;;;;;;;17.50;65.70;;;;;;5037222;28;1421;-70
2024/03/03 05:20:32;;;;;;;;;;;17.50;65.70;;;;;;5054123;28;1053;-71
2024/03/03 05:22:58;;;;;;;;;;;17.60;65.60;;;;;;5038223;28;1315;-72
2024/03/03 05:25:23;;;;;;;;;;;17.60;65.50;;;;;;5040136;28;1416;-72
2024/03/03 05:27:50;;;;;;;;;;;17.60;65.40;;;;;;5038519;28;1353;-74
2024/03/03 05:30:15;;;;;;;;;;;17.60;65.20;;;;;;5039562;28;1543;-73
2024/03/03 05:32:41;;;;;;;;;;;17.70;65.20;;;;;;5039371;28;1997;-72
2024/03/03 05:35:06;;;;;;;;;;;17.70;65.10;;;;;;5041384;28;1312;-72
2024/03/03 05:37:32;;;;;;;;;;;17.70;65.00;;;;;;5036382;28;1314;-72
2024/03/03 05:39:58;;;;;;;;;;;17.80;65.00;;;;;;5040649;28;1218;-71
2024/03/03 05:42:24;;;;;;;;;;;17.70;64.80;;;;;;5040442;28;1261;-71
2024/03/03 05:44:50;;;;;;;;;;;17.80;64.80;;;;;;5037414;28;973;-71
2024/03/03 05:47:15;;;;;;;;;;;17.80;64.70;;;;;;5037193;28;1365;-72
2024/03/03 05:49:41;;;;;;;;;;;17.80;64.60;;;;;;5035672;28;1636;-71
2024/03/03 05:52:07;;;;;;;;;;;17.80;64.50;;;;;;5036935;28;1969;-72
2024/03/03 05:54:33;;;;;;;;;;;17.80;64.40;;;;;;5042358;28;1549;-70
2024/03/03 05:56:58;;;;;;;;;;;17.90;64.40;;;;;;5040565;28;1511;-71
2024/03/03 05:59:24;;;;;;;;;;;17.90;64.40;;;;;;5037082;28;1627;-71
2024/03/03 06:01:49;;;;;;;;;;;17.90;64.30;;;;;;5039806;28;1630;-71
2024/03/03 06:04:18;;;;;;;;;;;17.90;65.10;;;;;;5041972;28;1318;-71
2024/03/03 06:06:43;;;;;;;;;;;17.90;64.20;;;;;;5024574;28;1582;-72
2024/03/03 06:09:10;;;;;;;;;;;17.90;64.20;;;;;;5035588;28;1387;-72
2024/03/03 06:11:37;;;;;;;;;;;17.90;64.20;;;;;;5037675;28;1443;-72
2024/03/03 06:14:03;;;;;;;;;;;18.00;64.20;;;;;;5037416;28;1906;-71
2024/03/03 06:16:28;;;;;;;;;;;18.00;64.10;;;;;;5070770;28;1269;-73
2024/03/03 06:18:54;;;;;;;;;;;18.00;64.10;;;;;;5038165;28;1466;-70
2024/03/03 06:21:19;;;;;;;;;;;18.00;64.10;;;;;;5041946;28;1467;-68
2024/03/03 06:23:45;;;;;;;;;;;18.00;64.10;;;;;;5042293;28;1354;-68
2024/03/03 06:26:13;;;;;;;;;;;18.00;64.00;;;;;;5042607;28;1541;-68
2024/03/03 06:28:39;;;;;;;;;;;18.00;64.00;;;;;;5040654;28;1203;-68
2024/03/03 06:31:04;;;;;;;;;;;18.00;64.00;;;;;;5041395;28;1462;-68
2024/03/03 06:33:30;;;;;;;;;;;18.00;64.00;;;;;;5038602;28;1953;-69
2024/03/03 06:35:55;;;;;;;;;;;18.00;64.00;;;;;;5042652;28;1488;-69
2024/03/03 06:38:20;;;;;;;;;;;18.00;64.00;;;;;;5041287;28;1532;-70
2024/03/03 06:40:47;;;;;;;;;;;18.00;64.00;;;;;;5040268;28;1564;-71
2024/03/03 06:43:12;;;;;;;;;;;18.00;64.00;;;;;;5039813;28;1354;-70
2024/03/03 06:45:38;;;;;;;;;;;18.00;64.00;;;;;;5040981;28;1748;-70
2024/03/03 06:48:03;;;;;;;;;;;18.00;64.00;;;;;;5040201;28;1540;-70
2024/03/03 06:50:29;;;;;;;;;;;18.00;64.00;;;;;;5038118;28;1399;-70
2024/03/03 06:52:54;;;;;;;;;;;18.00;64.00;;;;;;5043435;28;1957;-70
2024/03/03 06:55:21;;;;;;;;;;;18.00;64.00;;;;;;5041682;28;1558;-70
2024/03/03 06:57:46;;;;;;;;;;;18.00;64.00;;;;;;5043689;28;1544;-69
2024/03/03 07:00:13;;;;;;;;;;;18.00;64.00;;;;;;5042994;28;1413;-68
2024/03/03 07:03:04;;;;;;;;;;;18.00;64.00;;;;;;5041090;28;1561;-69
2024/03/03 07:05:29;;;;;;;;;;;18.00;64.00;;;;;;5044139;28;1466;-69
2024/03/03 07:07:55;;;;;;;;;;;18.00;64.00;;;;;;5040369;28;1560;-72
2024/03/03 07:10:20;;;;;;;;;;;18.00;64.00;;;;;;5040453;28;1468;-71
2024/03/03 07:12:46;;;;;;;;;;;18.00;64.00;;;;;;5042767;28;1969;-71
2024/03/03 07:15:11;;;;;;;;;;;18.00;64.00;;;;;;5034824;28;1211;-72
2024/03/03 07:17:37;;;;;;;;;;;18.00;64.10;;;;;;5039939;28;1297;-68
2024/03/03 07:20:05;;;;;;;;;;;18.00;64.10;;;;;;5042547;28;1834;-70
2024/03/03 07:22:34;;;;;;;;;;;18.00;64.10;;;;;;5040946;28;1589;-67
2024/03/03 07:25:01;;;;;;;;;;;18.00;64.10;;;;;;5038165;28;1272;-67
2024/03/03 07:27:26;;;;;;;;;;;18.00;64.10;;;;;;5049823;28;1283;-71
2024/03/03 07:29:51;;;;;;;;;;;18.00;64.10;;;;;;5038443;28;1670;-71
2024/03/03 07:32:17;;;;;;;;;;;18.00;64.10;;;;;;5041308;28;1898;-71
2024/03/03 07:34:43;;;;;;;;;;;18.00;64.20;;;;;;5038593;28;1440;-72
2024/03/03 07:37:08;;;;;;;;;;;18.00;64.10;;;;;;5036006;28;1439;-71
2024/03/03 07:39:34;;;;;;;;;;;18.00;64.20;;;;;;5040231;28;1452;-71
2024/03/03 07:42:00;;;;;;;;;;;17.90;64.10;;;;;;5040138;28;1598;-71
2024/03/03 07:44:25;;;;;;;;;;;17.90;64.20;;;;;;5041750;28;1458;-71
2024/03/03 07:46:51;;;;;;;;;;;17.90;64.10;;;;;;5038668;28;1423;-71
2024/03/03 07:49:16;;;;;;;;;;;17.90;64.20;;;;;;5022149;28;1460;-71
2024/03/03 07:51:42;;;;;;;;;;;17.90;64.20;;;;;;5042170;28;1363;-71
2024/03/03 07:54:07;;;;;;;;;;;17.90;64.20;;;;;;5038697;28;1959;-70
2024/03/03 07:56:32;;;;;;;;;;;18.00;64.20;;;;;;5043680;28;1434;-69
2024/03/03 07:59:03;;;;;;;;;;;17.90;64.20;;;;;;5041868;28;1415;-70
2024/03/03 08:01:33;;;;;;;;;;;17.90;64.20;;;;;;5041152;28;1915;-70
2024/03/03 08:03:59;;;;;;;;;;;17.90;64.20;;;;;;5041725;28;1296;-69
2024/03/03 08:06:24;;;;;;;;;;;17.90;64.20;;;;;;5037539;28;1550;-71
2024/03/03 08:08:50;;;;;;;;;;;17.90;64.20;;;;;;5044144;28;1458;-68
2024/03/03 08:11:15;;;;;;;;;;;17.90;64.30;;;;;;5042171;28;1356;-68
2024/03/03 08:13:41;;;;;;;;;;;17.90;64.30;;;;;;5040208;28;1906;-69
2024/03/03 08:16:06;;;;;;;;;;;17.90;64.30;;;;;;5039646;28;1401;-69
2024/03/03 08:18:32;;;;;;;;;;;18.00;64.40;;;;;;5041269;28;1335;-70
2024/03/03 08:20:58;;;;;;;;;;;17.90;64.30;;;;;;5040698;28;1459;-70
2024/03/03 08:23:23;;;;;;;;;;;17.90;64.30;;;;;;5039246;28;1528;-70
2024/03/03 08:25:49;;;;;;;;;;;17.90;64.30;;;;;;5047289;28;1248;-70
2024/03/03 08:28:14;;;;;;;;;;;17.90;64.30;;;;;;5042251;28;1354;-69
2024/03/03 08:30:40;;;;;;;;;;;17.90;64.30;;;;;;5039933;28;863;-71
2024/03/03 08:33:05;;;;;;;;;;;17.90;64.30;;;;;;5040001;28;1890;-71
2024/03/03 08:35:31;;;;;;;;;;;17.90;64.30;;;;;;5038910;28;891;-71
2024/03/03 08:37:56;;;;;;;;;;;17.90;64.40;;;;;;5038090;28;1536;-71
2024/03/03 08:40:23;;;;;;;;;;;17.90;64.30;;;;;;5039780;28;993;-71
2024/03/03 08:42:49;;;;;;;;;;;17.90;64.40;;;;;;5038519;28;1252;-71
2024/03/03 08:45:14;;;;;;;;;;;17.90;64.40;;;;;;5040419;28;1260;-71
2024/03/03 08:47:40;;;;;;;;;;;17.90;64.40;;;;;;5041542;28;1547;-71
2024/03/03 08:50:06;;;;;;;;;;;17.90;64.40;;;;;;5041100;28;1138;-71
2024/03/03 08:52:31;;;;;;;;;;;17.90;64.30;;;;;;5039237;28;1969;-71
2024/03/03 08:54:57;;;;;;;;;;;17.90;64.40;;;;;;5039710;28;1472;-71
2024/03/03 08:57:25;;;;;;;;;;;17.90;64.40;;;;;;5040475;28;1537;-70
2024/03/03 08:59:51;;;;;;;;;;;17.90;64.30;;;;;;5040385;28;1219;-69
2024/03/03 09:02:16;;;;;;;;;;;17.90;64.40;;;;;;5043285;28;1455;-68
2024/03/03 09:04:42;;;;;;;;;;;17.90;64.40;;;;;;5039720;28;1571;-70
2024/03/03 09:07:07;;;;;;;;;;;17.90;64.30;;;;;;5035794;28;1430;-70
2024/03/03 09:09:36;;;;;;;;;;;17.90;64.30;;;;;;5039793;28;1435;-69
2024/03/03 09:12:02;;;;;;;;;;;17.90;65.10;;;;;;5035966;28;1602;-70
2024/03/03 09:14:27;;;;;;;;;;;17.90;64.30;;;;;;5037564;28;1965;-70
2024/03/03 09:16:53;;;;;;;;;;;17.90;64.30;;;;;;5022633;28;1333;-69
2024/03/03 09:19:18;;;;;;;;;;;17.90;64.30;;;;;;5042148;28;1527;-68
2024/03/03 09:21:44;;;;;;;;;;;17.90;64.30;;;;;;5041387;28;1444;-70
2024/03/03 09:24:09;;;;;;;;;;;17.90;64.30;;;;;;5040225;28;1661;-70
2024/03/03 09:26:35;;;;;;;;;;;17.90;64.30;;;;;;5042349;28;1465;-69
2024/03/03 09:29:00;;;;;;;;;;;17.90;64.30;;;;;;5046130;28;1589;-71
2024/03/03 09:31:26;;;;;;;;;;;17.90;64.30;;;;;;5045655;28;1814;-70
2024/03/03 09:33:51;;;;;;;;;;;17.90;64.30;;;;;;5038279;28;1901;-72
2024/03/03 09:36:16;;;;;;;;;;;18.00;64.30;;;;;;5040798;28;1467;-71
2024/03/03 09:38:42;;;;;;;;;;;18.00;64.30;;;;;;5042112;28;1629;-72
2024/03/03 09:41:08;;;;;;;;;;;17.90;64.20;;;;;;5040711;28;1663;-72
2024/03/03 09:43:37;;;;;;;;;;;18.00;64.30;;;;;;5046186;28;1304;-70
2024/03/03 09:46:03;;;;;;;;;;;18.00;64.20;;;;;;5037350;28;1167;-70
2024/03/03 09:48:28;;;;;;;;;;;18.00;64.90;;;;;;5038313;28;1776;-71
2024/03/03 09:50:54;;;;;;;;;;;18.00;64.20;;;;;;5035671;28;1244;-69
2024/03/03 09:53:20;;;;;;;;;;;18.00;64.20;;;;;;5046320;28;1897;-71
2024/03/03 09:55:45;;;;;;;;;;;18.00;64.20;;;;;;5042093;28;1477;-69
2024/03/03 09:58:11;;;;;;;;;;;18.00;64.10;;;;;;5045244;28;1393;-70
2024/03/03 10:00:37;;;;;;;;;;;18.00;64.10;;;;;;5043211;28;1598;-69
2024/03/03 10:03:02;;;;;;;;;;;18.00;64.10;;;;;;5041896;28;1320;-70
2024/03/03 10:05:31;;;;;;;;;;;18.10;64.10;;;;;;5043891;28;1584;-71
2024/03/03 10:08:00;;;;;;;;;;;18.10;64.10;;;;;;5045107;28;1390;-71
2024/03/03 10:10:26;;;;;;;;;;;18.10;64.00;;;;;;5041579;28;1345;-72
2024/03/03 10:12:52;;;;;;;;;;;18.10;64.00;;;;;;5039522;28;1934;-69
2024/03/03 10:15:18;;;;;;;;;;;18.10;64.00;;;;;;5050714;28;1265;-71
2024/03/03 10:17:44;;;;;;;;;;;18.10;64.00;;;;;;5040983;28;1618;-72
2024/03/03 10:20:09;;;;;;;;;;;18.10;63.90;;;;;;5042690;28;1402;-71
2024/03/03 10:22:35;;;;;;;;;;;18.10;63.90;;;;;;5043335;28;1378;-70
2024/03/03 10:25:10;;;;;;;;;;;18.10;63.90;;;;;;5049611;28;1446;-72
2024/03/03 10:27:36;;;;;;;;;;;18.10;63.80;;;;;;5048688;28;1515;-72
2024/03/03 10:30:07;;;;;;;;;;;18.10;63.80;;;;;;5040538;28;1619;-70
2024/03/03 10:32:32;;;;;;;;;;;18.10;63.80;;;;;;5034191;28;1902;-71
2024/03/03 10:34:58;;;;;;;;;;;18.10;63.80;;;;;;5026124;28;1583;-71
2024/03/03 10:37:24;;;;;;;;;;;18.10;63.80;;;;;;5044269;28;1709;-69
2024/03/03 10:39:49;;;;;;;;;;;18.10;63.80;;;;;;5048945;28;1558;-71
2024/03/03 10:42:15;;;;;;;;;;;18.10;63.80;;;;;;5042497;28;1852;-72
2024/03/03 10:44:40;;;;;;;;;;;18.10;63.80;;;;;;5076322;28;1232;-71
2024/03/03 10:47:11;;;;;;;;;;;18.10;63.90;;;;;;5041450;28;1841;-70
2024/03/03 10:49:40;;;;;;;;;;;18.10;63.90;;;;;;5039118;28;1289;-71
2024/03/03 10:52:09;;;;;;;;;;;18.10;63.90;;;;;;5049397;28;1359;-71
2024/03/03 10:54:34;;;;;;;;;;;18.10;63.90;;;;;;5040415;28;1886;-70
2024/03/03 10:57:00;;;;;;;;;;;18.10;64.00;;;;;;5039382;28;1254;-70
2024/03/03 10:59:26;;;;;;;;;;;18.10;64.00;;;;;;5044039;28;1993;-70
2024/03/03 11:01:52;;;;;;;;;;;18.10;64.00;;;;;;5042804;28;1248;-70
2024/03/03 11:04:17;;;;;;;;;;;18.10;64.10;;;;;;5028358;28;1174;-70
2024/03/03 11:06:42;;;;;;;;;;;18.10;64.10;;;;;;5040378;28;2059;-68
2024/03/03 11:09:09;;;;;;;;;;;18.10;64.10;;;;;;5040483;28;1922;-70
2024/03/03 11:11:34;;;;;;;;;;;18.10;64.10;;;;;;5039779;28;2485;-69
2024/03/03 11:14:03;;;;;;;;;;;18.00;64.10;;;;;;5040153;28;1910;-69
2024/03/03 11:16:29;;;;;;;;;;;18.00;64.10;;;;;;5048906;28;966;-69
2024/03/03 11:19:04;;;;;;;;;;;18.00;64.10;;;;;;5026695;28;1300;-71
2024/03/03 11:21:31;;;;;;;;;;;18.00;64.20;;;;;;5039757;28;1720;-70
2024/03/03 11:24:06;;;;;;;;;;;18.00;64.20;;;;;;5048396;28;1272;-70
2024/03/03 11:26:44;;;;;;;;;;;18.00;64.20;;;;;;5042658;28;1718;-72
2024/03/03 11:29:10;;;;;;;;;;;18.00;64.30;;;;;;5043991;28;1316;-71
2024/03/03 11:31:36;;;;;;;;;;;18.00;64.30;;;;;;5047235;28;1322;-70
2024/03/03 11:34:02;;;;;;;;;;;17.90;64.30;;;;;;5027611;28;1902;-71
2024/03/03 11:36:28;;;;;;;;;;;18.00;64.30;;;;;;5047638;28;1574;-69
2024/03/03 11:38:55;;;;;;;;;;;18.00;64.40;;;;;;5042470;28;1291;-70
2024/03/03 11:41:21;;;;;;;;;;;17.90;64.30;;;;;;5039554;28;1351;-71
2024/03/03 11:43:46;;;;;;;;;;;18.00;64.40;;;;;;5040947;28;1594;-70
2024/03/03 11:46:32;;;;;;;;;;;17.90;64.40;;;;;;5041406;28;1209;-72
2024/03/03 11:48:57;;;;;;;;;;;17.90;64.40;;;;;;5042181;28;1345;-71
2024/03/03 11:51:28;;;;;;;;;;;17.90;64.30;;;;;;5048168;28;1536;-72
2024/03/03 11:53:57;;;;;;;;;;;18.00;64.40;;;;;;5040718;28;1949;-72
2024/03/03 11:56:23;;;;;;;;;;;18.00;64.40;;;;;;5041677;28;1519;-70
2024/03/03 11:58:49;;;;;;;;;;;18.00;64.30;;;;;;5039817;28;1377;-72
2024/03/03 12:01:19;;;;;;;;;;;18.00;64.30;;;;;;5039104;28;1757;-72
2024/03/03 12:03:44;;;;;;;;;;;18.00;64.30;;;;;;5040439;28;1557;-72
2024/03/03 12:06:10;;;;;;;;;;;18.00;64.20;;;;;;5038481;28;1377;-70
2024/03/03 12:08:35;;;;;;;;;;;18.00;64.20;;;;;;5042310;28;1641;-70
2024/03/03 12:11:01;;;;;;;;;;;18.00;64.20;;;;;;5038478;28;1332;-70
2024/03/03 12:13:27;;;;;;;;;;;18.00;64.20;;;;;;5040055;28;1902;-70
2024/03/03 12:15:53;;;;;;;;;;;18.10;64.20;;;;;;5041030;28;1261;-70
2024/03/03 12:18:18;;;;;;;;;;;18.00;64.10;;;;;;5072365;28;1293;-70
2024/03/03 12:20:44;;;;;;;;;;;18.00;64.10;;;;;;5040227;28;1481;-71
2024/03/03 12:23:10;;;;;;;;;;;18.10;64.10;;;;;;5040232;28;1410;-70
2024/03/03 12:25:35;;;;;;;;;;;18.10;64.10;;;;;;5042084;28;1582;-68
2024/03/03 12:28:01;;;;;;;;;;;18.10;64.80;;;;;;5041985;28;1301;-66
2024/03/03 12:30:33;;;;;;;;;;;18.10;64.00;;;;;;5042674;28;1338;-68
2024/03/03 12:33:04;;;;;;;;;;;18.10;64.00;;;;;;5042116;28;1898;-68
2024/03/03 12:35:30;;;;;;;;;;;18.10;64.00;;;;;;5039870;28;1270;-70
2024/03/03 12:37:55;;;;;;;;;;;18.10;63.90;;;;;;5041621;28;1385;-70
2024/03/03 12:40:20;;;;;;;;;;;18.10;63.90;;;;;;5043358;28;1209;-69
2024/03/03 12:42:52;;;;;;;;;;;18.10;63.90;;;;;;5042036;28;1531;-70
2024/03/03 12:45:18;;;;;;;;;;;18.10;63.80;;;;;;5043713;28;1331;-70
2024/03/03 12:47:43;;;;;;;;;;;18.10;63.80;;;;;;5043450;28;1337;-69
2024/03/03 12:50:12;;;;;;;;;;;18.10;63.70;;;;;;5040237;28;1427;-68
2024/03/03 12:52:38;;;;;;;;;;;18.10;63.80;;;;;;5038440;28;1963;-67
2024/03/03 12:55:04;;;;;;;;;;;18.20;63.80;;;;;;5039416;28;1497;-68
2024/03/03 12:57:29;;;;;;;;;;;18.20;63.70;;;;;;5042527;28;2283;-68
2024/03/03 12:59:55;;;;;;;;;;;18.20;63.70;;;;;;5040735;28;1455;-69
2024/03/03 13:02:20;;;;;;;;;;;18.20;63.70;;;;;;5039795;28;1532;-69
2024/03/03 13:04:46;;;;;;;;;;;18.20;63.70;;;;;;5038374;28;1500;-70
2024/03/03 13:07:11;;;;;;;;;;;18.20;63.70;;;;;;5042027;28;1345;-70
2024/03/03 13:09:37;;;;;;;;;;;18.20;63.70;;;;;;5042275;28;1479;-70
2024/03/03 13:12:06;;;;;;;;;;;18.20;63.70;;;;;;5045062;28;1468;-70
2024/03/03 13:14:32;;;;;;;;;;;18.10;63.70;;;;;;5035095;28;1910;-70
2024/03/03 13:17:03;;;;;;;;;;;18.10;63.70;;;;;;5039416;28;1266;-70
2024/03/03 13:19:48;;;;;;;;;;;18.10;63.70;;;;;;5042794;28;1544;-70
2024/03/03 13:22:17;;;;;;;;;;;18.10;63.80;;;;;;5038643;28;1415;-69
2024/03/03 13:24:49;;;;;;;;;;;18.10;63.80;;;;;;5042354;28;1415;-69
2024/03/03 13:27:14;;;;;;;;;;;18.10;63.80;;;;;;5040590;28;1367;-69
2024/03/03 13:29:40;;;;;;;;;;;18.10;63.80;;;;;;5040519;28;1356;-70
2024/03/03 13:32:05;;;;;;;;;;;18.10;63.90;;;;;;5026593;28;1449;-69
2024/03/03 13:34:31;;;;;;;;;;;18.10;63.90;;;;;;5040093;28;1893;-70
2024/03/03 13:36:56;;;;;;;;;;;18.10;63.90;;;;;;5039687;28;1386;-70
2024/03/03 13:39:22;;;;;;;;;;;18.10;63.90;;;;;;5038197;28;1793;-70
2024/03/03 13:41:47;;;;;;;;;;;18.10;64.00;;;;;;5038807;28;1898;-70
2024/03/03 13:44:13;;;;;;;;;;;18.10;64.00;;;;;;5037603;28;2123;-70
2024/03/03 13:46:39;;;;;;;;;;;18.10;64.00;;;;;;5038092;28;2238;-70
2024/03/03 13:49:04;;;;;;;;;;;18.10;64.00;;;;;;5069944;28;1557;-70
2024/03/03 13:51:30;;;;;;;;;;;18.10;64.00;;;;;;5038380;28;1507;-70
2024/03/03 13:53:55;;;;;;;;;;;18.10;64.10;;;;;;5037982;28;1905;-70
2024/03/03 13:56:21;;;;;;;;;;;18.10;64.10;;;;;;5037960;28;1104;-70
2024/03/03 13:58:46;;;;;;;;;;;18.10;64.10;;;;;;5018774;28;1362;-71
2024/03/03 14:01:12;;;;;;;;;;;18.10;64.10;;;;;;5023448;28;1358;-70
2024/03/03 14:03:38;;;;;;;;;;;18.10;64.10;;;;;;5040649;28;1523;-74
2024/03/03 14:06:03;;;;;;;;;;;18.10;64.10;;;;;;5036671;28;943;-71
2024/03/03 14:08:29;;;;;;;;;;;18.10;64.10;;;;;;5040670;28;1219;-71
2024/03/03 14:10:54;;;;;;;;;;;18.10;64.10;;;;;;5038368;28;1149;-70
2024/03/03 14:13:20;;;;;;;;;;;18.10;64.10;;;;;;5040960;28;1902;-69
2024/03/03 14:15:45;;;;;;;;;;;18.10;64.10;;;;;;5039719;28;1489;-70
2024/03/03 14:18:11;;;;;;;;;;;18.10;64.10;;;;;;5037737;28;1263;-70
2024/03/03 14:20:36;;;;;;;;;;;18.10;64.10;;;;;;5037555;28;1366;-70
2024/03/03 14:23:03;;;;;;;;;;;18.10;64.00;;;;;;5069853;28;1623;-69
2024/03/03 14:25:28;;;;;;;;;;;18.10;64.00;;;;;;5038415;28;1286;-71